TDPD

Melville Hall Airport

Marigot, Dominica
TAF TDPD 231700Z 2318/2418 13015KT 9999 SCT018 TEMPO 2402/2408 SHRA BKN014 SCT038
Issued Valid From Valid To
Apr-23 @ 17:00 UTC
(6 hours ago)
Apr-23 @ 18:00 UTC
(5 hours ago)
Apr-24 @ 18:00 UTC
(in 19 hours)
Apr-23 @ 18:00 to Apr-24 @ 18:00
TAF TDPD 231700Z 2318/2418 13015KT 9999 SCT018
Wind Visibility Clouds
130° at 15 knots 10,000+ meters
  • Scattered at 1,800' AGL
Temporary Apr-24 @ 02:00 to Apr-24 @ 08:00
TEMPO 2402/2408 SHRA BKN014 SCT038
Clouds Conditions
  • Broken at 1,400' AGL
  • Scattered at 3,800' AGL
  • Rain
TAF TDPD 231700Z 2318/2418 13015KT 9999 SCT018 TEMPO 2402/2408 SHRA BKN014 SCT038
Issued Apr-23 @ 17:00 UTC
(6 hours ago)
Valid From Apr-23 @ 18:00 UTC
(5 hours ago)
Valid To Apr-24 @ 18:00 UTC
(in 19 hours)
Apr-23 @ 18:00 - Apr-24 @ 18:00
Wind Visibility
130° at 15 knots 10,000+ meters
Clouds
  • Scattered at 1,800' AGL
Temporary Apr-24 @ 02:00 - Apr-24 @ 08:00
Clouds
  • Broken at 1,400' AGL
  • Scattered at 3,800' AGL
Conditions
  • Rain